createdAt,value
2023-08-08T00:00:09.519Z,16.7
2023-08-08T00:01:49.980Z,16.7
2023-08-08T00:03:30.621Z,16.7
2023-08-08T00:05:11.196Z,16.7
2023-08-08T00:06:51.659Z,16.7
2023-08-08T00:08:32.505Z,16.7
2023-08-08T00:10:12.984Z,16.7
2023-08-08T00:11:53.785Z,16.7
2023-08-08T00:13:34.922Z,16.7
2023-08-08T00:15:15.511Z,16.6
2023-08-08T00:16:56.321Z,16.7
2023-08-08T00:18:53.785Z,16.6
2023-08-08T00:20:34.245Z,16.6
2023-08-08T00:22:14.718Z,16.6
2023-08-08T00:23:55.162Z,16.6
2023-08-08T00:25:35.616Z,16.6
2023-08-08T00:27:16.083Z,16.6
2023-08-08T00:28:56.779Z,16.6
2023-08-08T00:30:37.354Z,16.6
2023-08-08T00:32:17.860Z,16.6
2023-08-08T00:33:58.303Z,16.6
2023-08-08T00:35:38.802Z,16.6
2023-08-08T00:37:19.333Z,16.6
2023-08-08T00:38:59.770Z,16.6
2023-08-08T00:40:40.376Z,16.6
2023-08-08T00:42:20.886Z,16.6
2023-08-08T00:44:01.445Z,16.6
2023-08-08T00:45:41.904Z,16.6
2023-08-08T00:47:22.377Z,16.6
2023-08-08T00:49:02.816Z,16.6
2023-08-08T00:50:43.301Z,16.6
2023-08-08T00:52:23.862Z,16.6
2023-08-08T00:54:04.380Z,16.6
2023-08-08T00:55:44.844Z,16.6
2023-08-08T00:57:25.374Z,16.6
2023-08-08T00:59:05.889Z,16.6
2023-08-08T01:00:47.577Z,16.6
2023-08-08T01:02:28.560Z,16.5
2023-08-08T01:04:09.355Z,16.6
2023-08-08T01:05:49.863Z,16.6
2023-08-08T01:07:30.292Z,16.6
2023-08-08T01:09:10.829Z,16.6
2023-08-08T01:10:51.315Z,16.5
2023-08-08T01:12:31.755Z,16.5
2023-08-08T01:14:12.299Z,16.5
2023-08-08T01:15:52.762Z,16.5
2023-08-08T01:17:36.894Z,16.5
2023-08-08T01:19:17.463Z,16.5
2023-08-08T01:20:57.923Z,16.5
2023-08-08T01:22:38.441Z,16.5
2023-08-08T01:24:18.944Z,16.5
2023-08-08T01:25:59.528Z,16.5
2023-08-08T01:27:39.979Z,16.5
2023-08-08T01:29:20.601Z,16.5
2023-08-08T01:31:01.152Z,16.5
2023-08-08T01:32:41.652Z,16.5
2023-08-08T01:34:22.188Z,16.5
2023-08-08T01:36:02.640Z,16.5
2023-08-08T01:37:43.095Z,16.5
2023-08-08T01:39:23.644Z,16.5
2023-08-08T01:41:04.217Z,16.4
2023-08-08T01:42:44.669Z,16.5
2023-08-08T01:44:25.228Z,16.4
2023-08-08T01:46:05.710Z,16.4
2023-08-08T01:47:46.323Z,16.5
2023-08-08T01:49:26.795Z,16.5
2023-08-08T01:51:07.313Z,16.5
2023-08-08T01:52:47.824Z,16.4
2023-08-08T01:54:28.272Z,16.5
2023-08-08T01:56:08.734Z,16.5
2023-08-08T01:57:49.286Z,16.4
2023-08-08T01:59:29.936Z,16.4
2023-08-08T02:03:22.102Z,16.4
2023-08-08T02:05:02.601Z,16.4
2023-08-08T02:06:43.045Z,16.4
2023-08-08T02:08:23.493Z,16.4
2023-08-08T02:10:03.957Z,16.4
2023-08-08T02:11:44.408Z,16.4
2023-08-08T02:13:24.874Z,16.4
2023-08-08T02:15:05.366Z,16.4
2023-08-08T02:16:45.938Z,16.4
2023-08-08T02:18:26.440Z,16.4
2023-08-08T02:20:06.885Z,16.4
2023-08-08T02:21:47.339Z,16.4
2023-08-08T02:23:27.828Z,16.4
2023-08-08T02:25:08.252Z,16.4
2023-08-08T02:26:48.709Z,16.4
2023-08-08T02:28:29.175Z,16.4
2023-08-08T02:30:09.849Z,16.4
2023-08-08T02:31:50.474Z,16.4
2023-08-08T02:33:30.953Z,16.4
2023-08-08T02:35:11.400Z,16.4
2023-08-08T02:36:51.856Z,16.4
2023-08-08T02:38:32.321Z,16.4
2023-08-08T02:40:12.835Z,16.4
2023-08-08T02:41:53.327Z,16.4
2023-08-08T02:43:33.806Z,16.4
2023-08-08T02:45:14.260Z,16.4
2023-08-08T02:46:54.704Z,16.4
2023-08-08T02:48:35.167Z,16.4
2023-08-08T02:50:15.616Z,16.4
2023-08-08T02:51:56.080Z,16.4
2023-08-08T02:53:36.514Z,16.4
2023-08-08T02:55:16.984Z,16.4
2023-08-08T02:56:57.431Z,16.4
2023-08-08T02:58:37.876Z,16.4
2023-08-08T03:00:18.369Z,16.4
2023-08-08T03:01:59.371Z,16.4
2023-08-08T03:03:40.166Z,16.4
2023-08-08T03:05:20.632Z,16.4
2023-08-08T03:07:01.171Z,16.4
2023-08-08T03:08:41.633Z,16.4
2023-08-08T03:10:22.091Z,16.4
2023-08-08T03:12:03.151Z,16.4
2023-08-08T03:13:43.616Z,16.4
2023-08-08T03:15:24.286Z,16.4
2023-08-08T03:17:04.798Z,16.4
2023-08-08T03:18:45.358Z,16.7
2023-08-08T03:20:26.315Z,16.8
2023-08-08T03:22:06.937Z,16.9
2023-08-08T03:23:47.480Z,16.9
2023-08-08T03:25:28.017Z,16.9
2023-08-08T03:27:08.514Z,16.9
2023-08-08T03:28:49.045Z,16.9
2023-08-08T03:30:29.624Z,16.9
2023-08-08T03:32:10.338Z,16.9
2023-08-08T03:33:50.954Z,16.9
2023-08-08T03:35:31.498Z,16.9
2023-08-08T03:37:11.941Z,16.9
2023-08-08T03:38:52.508Z,16.8
2023-08-08T03:40:32.976Z,16.8
2023-08-08T03:42:13.509Z,16.8
2023-08-08T03:43:54.086Z,16.8
2023-08-08T03:45:34.783Z,16.8
2023-08-08T03:47:22.384Z,16.8
2023-08-08T03:49:02.921Z,16.8
2023-08-08T03:50:43.369Z,16.8
2023-08-08T03:54:21.245Z,16.8
2023-08-08T03:56:01.692Z,16.8
2023-08-08T03:57:42.167Z,16.7
2023-08-08T03:59:22.604Z,16.7
2023-08-08T04:01:03.301Z,16.7
2023-08-08T04:02:44.065Z,16.7
2023-08-08T04:04:24.753Z,16.7
2023-08-08T04:06:05.246Z,16.6
2023-08-08T04:07:45.726Z,16.6
2023-08-08T04:09:26.159Z,16.6
2023-08-08T04:11:06.736Z,16.8
2023-08-08T04:12:47.241Z,16.8
2023-08-08T04:14:27.735Z,16.9
2023-08-08T04:16:08.292Z,16.9
2023-08-08T04:17:49.071Z,16.9
2023-08-08T04:19:29.739Z,16.9
2023-08-08T04:21:10.336Z,16.9
2023-08-08T04:22:50.904Z,16.9
2023-08-08T04:24:31.418Z,16.9
2023-08-08T04:26:11.854Z,16.9
2023-08-08T04:27:52.316Z,16.9
2023-08-08T04:29:32.754Z,16.8
2023-08-08T04:31:13.474Z,16.8
2023-08-08T04:32:54.102Z,16.8
2023-08-08T04:34:34.633Z,16.8
2023-08-08T04:36:15.106Z,16.8
2023-08-08T04:37:55.543Z,16.8
2023-08-08T04:39:36.135Z,16.8
2023-08-08T04:41:16.918Z,16.8
2023-08-08T04:42:57.440Z,16.8
2023-08-08T04:44:37.878Z,16.8
2023-08-08T04:46:18.585Z,16.8
2023-08-08T04:47:59.178Z,16.8
2023-08-08T04:49:39.747Z,16.8
2023-08-08T04:51:20.362Z,16.7
2023-08-08T04:53:00.883Z,16.8
2023-08-08T04:54:41.457Z,16.7
2023-08-08T04:56:21.896Z,16.7
2023-08-08T04:58:02.352Z,16.7
2023-08-08T04:59:42.818Z,16.7
2023-08-08T05:01:23.486Z,16.7
2023-08-08T05:03:04.261Z,16.7
2023-08-08T05:04:44.818Z,16.7
2023-08-08T05:06:25.247Z,16.7
2023-08-08T05:08:05.725Z,16.7
2023-08-08T05:09:46.208Z,16.6
2023-08-08T05:11:26.711Z,16.6
2023-08-08T05:13:07.295Z,16.6
2023-08-08T05:14:47.824Z,16.6
2023-08-08T05:16:28.588Z,16.6
2023-08-08T05:18:09.216Z,16.6
2023-08-08T05:19:50.300Z,16.6
2023-08-08T05:21:30.774Z,16.6
2023-08-08T05:23:11.235Z,16.6
2023-08-08T05:24:51.697Z,16.6
2023-08-08T05:26:32.140Z,16.6
2023-08-08T05:28:12.590Z,16.6
2023-08-08T05:29:53.047Z,16.6
2023-08-08T05:31:33.817Z,16.6
2023-08-08T05:33:14.378Z,16.6
2023-08-08T05:34:54.838Z,16.6
2023-08-08T05:36:35.318Z,16.6
2023-08-08T05:38:15.851Z,16.6
2023-08-08T05:39:56.305Z,16.6
2023-08-08T05:41:36.780Z,16.6
2023-08-08T05:41:53.763Z,16.6
2023-08-08T05:43:34.202Z,16.6
2023-08-08T05:45:14.685Z,16.6
2023-08-08T05:46:55.248Z,16.6
2023-08-08T05:48:35.678Z,16.6
2023-08-08T05:50:16.126Z,16.6
2023-08-08T05:51:56.676Z,16.6
2023-08-08T05:53:37.211Z,16.6
2023-08-08T05:55:17.702Z,16.6
2023-08-08T05:56:58.173Z,16.6
2023-08-08T05:58:38.820Z,16.6
2023-08-08T06:00:19.363Z,16.6
2023-08-08T06:02:00.912Z,16.6
2023-08-08T06:03:41.727Z,16.6
2023-08-08T06:05:22.358Z,16.6
2023-08-08T06:07:02.844Z,16.6
2023-08-08T06:08:43.308Z,16.6
2023-08-08T06:10:23.815Z,16.5
2023-08-08T06:12:04.681Z,16.5
2023-08-08T06:13:45.178Z,16.5
2023-08-08T06:15:25.644Z,16.5
2023-08-08T06:17:06.209Z,16.5
2023-08-08T06:18:46.644Z,16.5
2023-08-08T06:20:27.330Z,16.5
2023-08-08T06:22:07.919Z,16.5
2023-08-08T06:23:48.416Z,16.5
2023-08-08T06:25:29.260Z,16.5
2023-08-08T06:27:10.223Z,16.5
2023-08-08T06:28:50.991Z,16.5
2023-08-08T06:30:31.533Z,16.5
2023-08-08T06:32:12.359Z,16.5
2023-08-08T06:33:52.925Z,16.5
2023-08-08T06:35:33.379Z,16.5
2023-08-08T06:37:13.821Z,16.5
2023-08-08T06:38:54.285Z,16.5
2023-08-08T06:40:34.724Z,16.5
2023-08-08T06:42:15.181Z,16.5
2023-08-08T06:43:55.642Z,16.5
2023-08-08T06:45:36.194Z,16.5
2023-08-08T06:47:17.036Z,16.5
2023-08-08T06:48:57.548Z,16.5
2023-08-08T06:50:38.066Z,16.5
2023-08-08T06:52:18.534Z,16.5
2023-08-08T06:53:59.075Z,16.5
2023-08-08T06:55:39.534Z,16.5
2023-08-08T06:57:20.016Z,16.5
2023-08-08T06:59:00.472Z,16.5
2023-08-08T07:00:40.982Z,16.5
2023-08-08T07:02:21.839Z,16.5
2023-08-08T07:04:02.317Z,16.5
2023-08-08T07:05:42.780Z,16.5
2023-08-08T07:07:23.316Z,16.5
2023-08-08T07:09:03.796Z,16.5
2023-08-08T07:10:44.513Z,16.5
2023-08-08T07:12:25.033Z,16.5
2023-08-08T07:14:05.471Z,16.5
2023-08-08T07:15:46.124Z,16.5
2023-08-08T07:17:26.826Z,16.5
2023-08-08T07:19:07.390Z,16.5
2023-08-08T07:20:48.397Z,16.5
2023-08-08T07:22:28.894Z,16.5
2023-08-08T07:24:09.434Z,16.5
2023-08-08T07:25:53.041Z,16.5
2023-08-08T07:27:33.518Z,16.5
2023-08-08T07:29:14.036Z,16.5
2023-08-08T07:30:54.621Z,16.5
2023-08-08T07:32:52.362Z,16.5
2023-08-08T07:34:32.860Z,16.5
2023-08-08T07:36:13.325Z,16.5
2023-08-08T07:37:53.850Z,16.5
2023-08-08T07:39:34.501Z,16.5
2023-08-08T07:41:14.999Z,16.5
2023-08-08T07:42:55.451Z,16.5
2023-08-08T07:44:36.078Z,16.5
2023-08-08T07:46:16.688Z,16.5
2023-08-08T07:47:57.549Z,16.5
2023-08-08T07:49:38.129Z,16.4
2023-08-08T07:51:18.668Z,16.5
2023-08-08T07:52:59.199Z,16.5
2023-08-08T07:54:39.663Z,16.5
2023-08-08T07:56:20.129Z,16.6
2023-08-08T07:58:00.669Z,16.8
2023-08-08T07:59:41.140Z,16.8
2023-08-08T08:03:25.699Z,16.8
2023-08-08T08:05:06.254Z,16.8
2023-08-08T08:06:47.687Z,16.8
2023-08-08T08:08:28.211Z,16.8
2023-08-08T08:10:08.637Z,16.8
2023-08-08T08:11:49.190Z,16.8
2023-08-08T08:13:29.658Z,16.8
2023-08-08T08:15:10.106Z,16.8
2023-08-08T08:16:50.758Z,16.8
2023-08-08T08:18:31.640Z,16.8
2023-08-08T08:20:12.134Z,16.8
2023-08-08T08:21:52.659Z,16.8
2023-08-08T08:23:33.108Z,16.8
2023-08-08T08:25:13.554Z,16.9
2023-08-08T08:26:54.046Z,17.1
2023-08-08T08:28:34.475Z,17.1
2023-08-08T08:30:15.585Z,17.1
2023-08-08T08:31:56.937Z,17.1
2023-08-08T08:33:37.579Z,17.1
2023-08-08T08:35:18.136Z,17.1
2023-08-08T08:36:58.599Z,17.1
2023-08-08T08:38:39.044Z,17.1
2023-08-08T08:40:19.594Z,17.1
2023-08-08T08:42:00.074Z,17.1
2023-08-08T08:43:40.516Z,17.1
2023-08-08T08:45:20.999Z,17.1
2023-08-08T08:47:01.443Z,17.1
2023-08-08T08:48:41.968Z,17
2023-08-08T08:50:22.682Z,17
2023-08-08T08:52:04.106Z,17
2023-08-08T08:53:44.583Z,17
2023-08-08T08:55:25.057Z,17
2023-08-08T08:57:05.526Z,17
2023-08-08T08:58:45.946Z,16.9
2023-08-08T09:00:26.468Z,16.9
2023-08-08T09:02:07.079Z,16.9
2023-08-08T09:03:48.166Z,16.9
2023-08-08T09:05:28.718Z,16.9
2023-08-08T09:07:09.151Z,16.7
2023-08-08T09:08:49.742Z,16.8
2023-08-08T09:10:31.133Z,16.8
2023-08-08T09:12:11.832Z,16.9
2023-08-08T09:13:52.483Z,16.9
2023-08-08T09:15:33.400Z,17
2023-08-08T09:17:13.926Z,17
2023-08-08T09:18:54.469Z,17
2023-08-08T09:20:34.935Z,17
2023-08-08T09:22:15.423Z,17
2023-08-08T09:23:55.969Z,16.9
2023-08-08T09:25:36.421Z,16.8
2023-08-08T09:27:16.872Z,16.6
2023-08-08T09:28:57.342Z,16.6
2023-08-08T09:30:37.901Z,16.6
2023-08-08T09:32:18.345Z,16.8
2023-08-08T09:33:58.905Z,17
2023-08-08T09:35:39.347Z,17.1
2023-08-08T09:37:19.817Z,17.1
2023-08-08T09:39:00.274Z,17.2
2023-08-08T09:40:40.733Z,17.2
2023-08-08T09:42:21.200Z,17.2
2023-08-08T09:44:01.663Z,17.2
2023-08-08T09:45:42.193Z,17.2
2023-08-08T09:47:25.435Z,17.2
2023-08-08T09:49:06.285Z,17.1
2023-08-08T09:50:46.839Z,17.1
2023-08-08T09:54:24.638Z,17.1
2023-08-08T09:56:05.102Z,17
2023-08-08T09:57:45.573Z,16.9
2023-08-08T09:59:26.122Z,16.9
2023-08-08T10:01:06.595Z,16.9
2023-08-08T10:02:47.410Z,16.9
2023-08-08T10:04:28.186Z,16.9
2023-08-08T10:06:08.716Z,17
2023-08-08T10:07:49.200Z,17
2023-08-08T10:09:29.736Z,16.9
2023-08-08T10:11:10.238Z,17
2023-08-08T10:12:50.680Z,17
2023-08-08T10:14:31.140Z,17
2023-08-08T10:16:11.774Z,17
2023-08-08T10:17:52.331Z,17
2023-08-08T10:19:32.935Z,17.1
2023-08-08T10:21:13.377Z,17.1
2023-08-08T10:22:53.826Z,17.1
2023-08-08T10:24:34.291Z,17.1
2023-08-08T10:26:14.842Z,17.1
2023-08-08T10:27:55.291Z,17.1
2023-08-08T10:29:35.930Z,17.1
2023-08-08T10:31:16.506Z,17.1
2023-08-08T10:32:57.176Z,17
2023-08-08T10:34:37.814Z,17
2023-08-08T10:36:18.313Z,17.1
2023-08-08T10:37:58.744Z,17
2023-08-08T10:39:39.301Z,16.9
2023-08-08T10:41:19.753Z,16.9
2023-08-08T10:43:00.211Z,16.9
2023-08-08T10:44:40.686Z,17
2023-08-08T10:46:21.241Z,17.1
2023-08-08T10:48:01.878Z,17.1
2023-08-08T10:49:42.646Z,17.2
2023-08-08T10:51:23.101Z,17.2
2023-08-08T10:53:04.883Z,17.2
2023-08-08T10:54:46.071Z,17.2
2023-08-08T10:56:26.515Z,17.2
2023-08-08T10:58:07.006Z,17.2
2023-08-08T10:59:48.015Z,17.2
2023-08-08T11:01:28.802Z,17.2
2023-08-08T11:03:09.372Z,17.2
2023-08-08T11:04:50.069Z,17.1
2023-08-08T11:06:30.795Z,17.1
2023-08-08T11:08:11.273Z,17.1
2023-08-08T11:09:51.771Z,17.1
2023-08-08T11:11:32.167Z,17.1
2023-08-08T11:13:12.809Z,17.1
2023-08-08T11:14:53.462Z,17.1
2023-08-08T11:16:34.010Z,17.1
2023-08-08T11:18:18.079Z,17.1
2023-08-08T11:19:59.039Z,17.1
2023-08-08T11:21:39.589Z,17.1
2023-08-08T11:23:20.065Z,17.1
2023-08-08T11:25:02.042Z,16.9
2023-08-08T11:26:42.542Z,16.8
2023-08-08T11:28:22.966Z,16.8
2023-08-08T11:30:03.527Z,16.8
2023-08-08T11:31:44.167Z,16.8
2023-08-08T11:33:24.736Z,16.9
2023-08-08T11:35:05.353Z,16.9
2023-08-08T11:36:45.918Z,17
2023-08-08T11:38:26.417Z,16.9
2023-08-08T11:40:06.885Z,16.9
2023-08-08T11:43:44.676Z,17
2023-08-08T11:45:25.243Z,17
2023-08-08T11:47:08.642Z,17.1
2023-08-08T11:48:49.117Z,17.1
2023-08-08T11:50:29.779Z,17.1
2023-08-08T11:52:10.325Z,17.2
2023-08-08T11:53:50.958Z,17.2
2023-08-08T11:55:31.457Z,17.2
2023-08-08T11:57:12.010Z,17.2
2023-08-08T11:58:52.646Z,17.2
2023-08-08T12:00:33.517Z,17.1
2023-08-08T12:02:13.984Z,17.1
2023-08-08T12:03:54.562Z,17
2023-08-08T12:05:35.129Z,16.8
2023-08-08T12:07:15.582Z,16.8
2023-08-08T12:08:56.022Z,16.8
2023-08-08T12:10:36.476Z,16.9
2023-08-08T12:12:22.011Z,16.9
2023-08-08T12:14:02.527Z,17
2023-08-08T12:15:43.063Z,17.1
2023-08-08T12:17:23.678Z,17.1
2023-08-08T12:19:04.312Z,17.1
2023-08-08T12:20:44.937Z,17.1
2023-08-08T12:22:25.439Z,17.1
2023-08-08T12:24:06.119Z,17.1
2023-08-08T12:25:46.610Z,17.1
2023-08-08T12:27:27.083Z,17.1
2023-08-08T12:29:07.529Z,17.1
2023-08-08T12:30:48.176Z,17.1
2023-08-08T12:32:28.739Z,17.1
2023-08-08T12:34:09.270Z,17.1
2023-08-08T12:35:49.992Z,17.1
2023-08-08T12:37:30.434Z,17.1
2023-08-08T12:39:11.182Z,17.1
2023-08-08T12:40:51.638Z,17.1
2023-08-08T12:42:32.201Z,17.1
2023-08-08T12:44:12.754Z,17.1
2023-08-08T12:45:53.220Z,17.1
2023-08-08T12:47:33.776Z,17
2023-08-08T12:49:14.318Z,17
2023-08-08T12:50:54.850Z,17
2023-08-08T12:52:35.342Z,17
2023-08-08T12:54:16.006Z,17
2023-08-08T12:55:56.477Z,17
2023-08-08T12:57:36.919Z,16.9
2023-08-08T12:59:17.369Z,16.7
2023-08-08T13:00:57.887Z,16.9
2023-08-08T13:02:38.478Z,16.9
2023-08-08T13:04:22.498Z,17.1
2023-08-08T13:06:03.012Z,17.1
2023-08-08T13:07:43.535Z,17
2023-08-08T13:09:24.013Z,16.9
2023-08-08T13:11:04.453Z,16.9
2023-08-08T13:12:44.902Z,16.9
2023-08-08T13:14:25.399Z,16.8
2023-08-08T13:16:06.006Z,16.8
2023-08-08T13:17:46.492Z,16.8
2023-08-08T13:19:26.956Z,16.8
2023-08-08T13:21:10.362Z,16.8
2023-08-08T13:22:50.986Z,16.8
2023-08-08T13:24:31.486Z,16.8
2023-08-08T13:26:11.928Z,16.9
2023-08-08T13:27:52.386Z,17
2023-08-08T13:29:32.926Z,17.1
2023-08-08T13:33:10.750Z,17.1
2023-08-08T13:34:51.222Z,17.1
2023-08-08T13:36:31.870Z,17.1
2023-08-08T13:38:12.341Z,17.1
2023-08-08T13:39:52.787Z,17.2
2023-08-08T13:41:33.250Z,17.1
2023-08-08T13:43:13.812Z,17.2
2023-08-08T13:45:10.834Z,17.1
2023-08-08T13:46:51.491Z,17.1
2023-08-08T13:48:31.969Z,17.1
2023-08-08T13:50:12.412Z,17.1
2023-08-08T13:51:53.483Z,17.1
2023-08-08T13:53:33.957Z,17.1
2023-08-08T13:55:14.398Z,17.1
2023-08-08T13:56:54.865Z,17.1
2023-08-08T13:58:35.279Z,17.1
2023-08-08T14:00:15.765Z,17.1
2023-08-08T14:03:28.420Z,17.1
2023-08-08T14:05:08.930Z,17
2023-08-08T14:06:49.405Z,16.9
2023-08-08T14:08:29.962Z,16.9
2023-08-08T14:10:10.462Z,16.9
2023-08-08T14:11:50.989Z,16.9
2023-08-08T14:13:31.419Z,16.9
2023-08-08T14:15:11.878Z,16.9
2023-08-08T14:16:53.863Z,16.9
2023-08-08T14:18:34.417Z,16.9
2023-08-08T14:20:14.880Z,16.9
2023-08-08T14:21:55.336Z,16.9
2023-08-08T14:23:35.886Z,16.9
2023-08-08T14:25:16.408Z,16.9
2023-08-08T14:26:56.991Z,16.8
2023-08-08T14:28:37.469Z,16.9
2023-08-08T14:30:17.929Z,17
2023-08-08T14:32:03.428Z,17
2023-08-08T14:33:43.949Z,17.1
2023-08-08T14:35:24.454Z,17.1
2023-08-08T14:37:05.093Z,17.2
2023-08-08T14:38:45.640Z,17.2
2023-08-08T14:40:26.109Z,17.2
2023-08-08T14:42:07.110Z,17.2
2023-08-08T14:43:47.601Z,17.2
2023-08-08T14:45:28.152Z,17.2
2023-08-08T14:47:08.606Z,17.2
2023-08-08T14:48:49.073Z,17.2
2023-08-08T14:50:29.526Z,17.2
2023-08-08T14:52:09.972Z,17.2
2023-08-08T14:53:50.545Z,17.2
2023-08-08T14:55:30.999Z,17.2
2023-08-08T14:57:11.554Z,17.2
2023-08-08T14:58:52.008Z,17.2
2023-08-08T15:00:32.490Z,17.2
2023-08-08T15:02:13.044Z,17.2
2023-08-08T15:03:53.664Z,17.2
2023-08-08T15:05:34.142Z,17.2
2023-08-08T15:07:14.587Z,17.2
2023-08-08T15:08:55.125Z,17.2
2023-08-08T15:10:38.126Z,17.2
2023-08-08T15:12:18.617Z,17.2
2023-08-08T15:13:59.090Z,17.2
2023-08-08T15:15:39.637Z,17.2
2023-08-08T15:17:20.192Z,17.1
2023-08-08T15:19:00.660Z,17.1
2023-08-08T15:20:41.104Z,17.1
2023-08-08T15:22:21.570Z,17.1
2023-08-08T15:24:02.138Z,17.1
2023-08-08T15:25:42.569Z,17.1
2023-08-08T15:27:23.051Z,17.1
2023-08-08T15:29:03.481Z,17.1
2023-08-08T15:30:44.027Z,17.1
2023-08-08T15:32:24.525Z,17.1
2023-08-08T15:34:05.052Z,17.1
2023-08-08T15:35:45.575Z,17.1
2023-08-08T15:37:26.075Z,17.1
2023-08-08T15:39:06.641Z,17.1
2023-08-08T15:40:47.084Z,17.1
2023-08-08T15:42:27.541Z,17.1
2023-08-08T15:44:07.993Z,17.1
2023-08-08T15:45:48.484Z,17.1
2023-08-08T15:47:28.909Z,17.1
2023-08-08T15:49:09.357Z,17.1
2023-08-08T15:50:49.815Z,17.1
2023-08-08T15:54:27.748Z,17.1
2023-08-08T15:56:08.195Z,17.1
2023-08-08T15:57:48.645Z,17.1
2023-08-08T15:59:29.764Z,17.1
2023-08-08T16:01:10.401Z,17.1
2023-08-08T16:02:51.374Z,17.1
2023-08-08T16:04:31.910Z,17.1
2023-08-08T16:06:12.336Z,17.1
2023-08-08T16:07:52.818Z,17.1
2023-08-08T16:09:33.373Z,16.9
2023-08-08T16:11:13.895Z,16.9
2023-08-08T16:12:54.388Z,16.9
2023-08-08T16:14:34.858Z,16.9
2023-08-08T16:16:15.377Z,16.9
2023-08-08T16:17:55.951Z,16.9
2023-08-08T16:19:36.418Z,16.9
2023-08-08T16:21:16.873Z,16.9
2023-08-08T16:22:57.329Z,16.8
2023-08-08T16:24:37.986Z,16.9
2023-08-08T16:26:19.856Z,16.9
2023-08-08T16:28:00.354Z,16.9
2023-08-08T16:29:40.799Z,16.9
2023-08-08T16:31:21.451Z,16.9
2023-08-08T16:33:01.981Z,16.9
2023-08-08T16:34:42.645Z,16.9
2023-08-08T16:36:23.115Z,16.9
2023-08-08T16:38:03.592Z,16.9
2023-08-08T16:39:44.053Z,16.9
2023-08-08T16:41:24.586Z,16.9
2023-08-08T16:43:05.054Z,16.9
2023-08-08T16:44:45.509Z,16.9
2023-08-08T16:46:26.064Z,16.9
2023-08-08T16:48:06.609Z,16.9
2023-08-08T16:49:47.102Z,16.9
2023-08-08T16:51:27.648Z,16.9
2023-08-08T16:53:08.105Z,16.9
2023-08-08T16:54:48.635Z,16.9
2023-08-08T16:56:29.150Z,16.9
2023-08-08T16:58:09.659Z,16.8
2023-08-08T16:59:50.216Z,16.9
2023-08-08T17:01:30.689Z,16.9
2023-08-08T17:03:11.419Z,17
2023-08-08T17:04:52.007Z,17
2023-08-08T17:06:32.467Z,17
2023-08-08T17:08:12.916Z,17.1
2023-08-08T17:09:53.400Z,17.1
2023-08-08T17:11:33.990Z,17.1
2023-08-08T17:13:14.488Z,17.1
2023-08-08T17:14:54.952Z,17.1
2023-08-08T17:16:35.816Z,17.1
2023-08-08T17:18:16.376Z,17.1
2023-08-08T17:19:56.835Z,17.1
2023-08-08T17:21:37.268Z,17.1
2023-08-08T17:23:17.728Z,17
2023-08-08T17:24:58.540Z,17
2023-08-08T17:26:39.050Z,17
2023-08-08T17:28:19.501Z,17
2023-08-08T17:29:59.973Z,17
2023-08-08T17:31:40.416Z,17
2023-08-08T17:33:20.865Z,17
2023-08-08T17:35:01.349Z,17
2023-08-08T17:36:41.777Z,17
2023-08-08T17:38:22.259Z,17
2023-08-08T17:40:02.835Z,17
2023-08-08T17:43:40.726Z,17
2023-08-08T17:45:21.170Z,17
2023-08-08T17:47:01.615Z,17
2023-08-08T17:48:42.091Z,17
2023-08-08T17:50:22.534Z,17
2023-08-08T17:52:03.969Z,17
2023-08-08T17:53:44.477Z,17
2023-08-08T17:55:25.049Z,16.9
2023-08-08T17:57:05.593Z,16.9
2023-08-08T17:58:46.039Z,16.9
2023-08-08T18:00:26.491Z,16.9
2023-08-08T18:02:07.596Z,16.9
2023-08-08T18:03:48.155Z,16.9
2023-08-08T18:05:28.677Z,16.9
2023-08-08T18:07:09.149Z,16.9
2023-08-08T18:08:49.592Z,16.9
2023-08-08T18:10:30.155Z,16.9
2023-08-08T18:12:10.605Z,16.9
2023-08-08T18:13:51.058Z,16.9
2023-08-08T18:15:31.613Z,16.9
2023-08-08T18:17:12.081Z,16.9
2023-08-08T18:18:52.533Z,16.9
2023-08-08T18:20:33.000Z,16.9
2023-08-08T18:22:13.441Z,16.9
2023-08-08T18:23:53.900Z,16.9
2023-08-08T18:25:34.502Z,16.9
2023-08-08T18:27:15.014Z,16.9
2023-08-08T18:28:55.469Z,16.9
2023-08-08T18:30:35.962Z,16.9
2023-08-08T18:32:16.560Z,16.8
2023-08-08T18:33:57.043Z,16.8
2023-08-08T18:35:37.510Z,16.8
2023-08-08T18:37:17.950Z,16.9
2023-08-08T18:38:58.443Z,17
2023-08-08T18:40:38.981Z,17
2023-08-08T18:42:19.416Z,16.9
2023-08-08T18:43:59.913Z,16.9
2023-08-08T18:45:40.559Z,16.9
2023-08-08T18:47:21.095Z,16.9
2023-08-08T18:49:01.570Z,16.9
2023-08-08T18:50:42.284Z,16.8
2023-08-08T18:52:22.774Z,16.7
2023-08-08T18:54:03.269Z,16.6
2023-08-08T18:55:44.280Z,16.6
2023-08-08T18:57:24.747Z,16.5
2023-08-08T18:59:05.208Z,16.5
2023-08-08T19:00:45.660Z,16.6
2023-08-08T19:02:26.228Z,16.8
2023-08-08T19:04:06.798Z,16.9
2023-08-08T19:05:47.342Z,16.9
2023-08-08T19:07:27.878Z,17
2023-08-08T19:09:10.903Z,17
2023-08-08T19:10:51.584Z,16.9
2023-08-08T19:12:32.042Z,16.8
2023-08-08T19:14:12.482Z,16.8
2023-08-08T19:15:52.928Z,16.8
2023-08-08T19:17:57.057Z,16.8
2023-08-08T19:19:37.707Z,16.7
2023-08-08T19:21:18.162Z,16.7
2023-08-08T19:22:58.626Z,16.7
2023-08-08T19:24:39.154Z,16.7
2023-08-08T19:26:19.717Z,16.7
2023-08-08T19:28:00.214Z,16.7
2023-08-08T19:29:40.746Z,16.7
2023-08-08T19:31:21.236Z,16.7
2023-08-08T19:31:38.269Z,16.7
2023-08-08T19:33:18.757Z,16.7
2023-08-08T19:34:59.223Z,16.7
2023-08-08T19:36:39.782Z,16.7
2023-08-08T19:38:20.235Z,16.7
2023-08-08T19:40:00.684Z,16.7
2023-08-08T19:41:41.253Z,16.7
2023-08-08T19:43:21.873Z,16.7
2023-08-08T19:45:02.424Z,16.7
2023-08-08T19:46:42.923Z,16.7
2023-08-08T19:48:23.400Z,16.7
2023-08-08T19:50:03.956Z,16.7
2023-08-08T19:51:44.486Z,16.7
2023-08-08T19:53:24.947Z,16.7
2023-08-08T19:55:05.414Z,16.7
2023-08-08T19:56:45.944Z,16.7
2023-08-08T19:58:26.417Z,16.7
2023-08-08T20:00:06.906Z,16.7
2023-08-08T20:01:47.512Z,16.7
2023-08-08T20:03:28.239Z,16.5
2023-08-08T20:05:08.769Z,16.4
2023-08-08T20:06:49.214Z,16.3
2023-08-08T20:08:29.671Z,16.2
2023-08-08T20:10:10.128Z,16.2
2023-08-08T20:11:50.677Z,16.2
2023-08-08T20:13:31.159Z,16.2
2023-08-08T20:15:11.592Z,16.1
2023-08-08T20:16:52.043Z,16.1
2023-08-08T20:18:32.513Z,16
2023-08-08T20:20:12.962Z,16
2023-08-08T20:21:55.451Z,16.1
2023-08-08T20:23:37.745Z,16.4
2023-08-08T20:25:18.219Z,16.6
2023-08-08T20:26:58.694Z,16.8
2023-08-08T20:28:39.293Z,16.9
2023-08-08T20:30:19.792Z,17
2023-08-08T20:32:00.768Z,17
2023-08-08T20:33:41.416Z,17
2023-08-08T20:35:21.934Z,17
2023-08-08T20:37:03.333Z,16.9
2023-08-08T20:38:44.143Z,16.9
2023-08-08T20:40:24.621Z,16.9
2023-08-08T20:42:05.859Z,16.9
2023-08-08T20:43:46.577Z,16.8
2023-08-08T20:45:27.171Z,16.8
2023-08-08T20:47:08.106Z,16.8
2023-08-08T20:48:48.810Z,16.8
2023-08-08T20:50:29.255Z,16.8
2023-08-08T20:52:09.767Z,16.8
2023-08-08T20:53:50.262Z,16.8
2023-08-08T20:55:30.816Z,16.6
2023-08-08T20:57:11.461Z,16.8
2023-08-08T20:58:52.076Z,16.9
2023-08-08T21:00:32.876Z,16.9
